sensor_id;sensor_type;location;lat;lon;timestamp;P1;durP1;ratioP1;P2;durP2;ratioP2
24713;SDS011;12820;51.580;5.010;2023-05-07T00:00:51;14.15;;;9.50;;
24713;SDS011;12820;51.580;5.010;2023-05-07T00:05:54;14.35;;;9.68;;
24713;SDS011;12820;51.580;5.010;2023-05-07T00:10:56;15.00;;;10.32;;
24713;SDS011;12820;51.580;5.010;2023-05-07T00:15:58;13.82;;;10.23;;
24713;SDS011;12820;51.580;5.010;2023-05-07T00:21:00;14.02;;;10.38;;
24713;SDS011;12820;51.580;5.010;2023-05-07T00:26:03;13.52;;;10.70;;
24713;SDS011;12820;51.580;5.010;2023-05-07T00:31:06;12.75;;;10.48;;
24713;SDS011;12820;51.580;5.010;2023-05-07T00:36:08;12.52;;;9.65;;
24713;SDS011;12820;51.580;5.010;2023-05-07T00:41:10;12.77;;;9.82;;
24713;SDS011;12820;51.580;5.010;2023-05-07T00:46:12;15.00;;;9.85;;
24713;SDS011;12820;51.580;5.010;2023-05-07T00:51:15;12.88;;;10.07;;
24713;SDS011;12820;51.580;5.010;2023-05-07T00:56:20;12.18;;;8.90;;
24713;SDS011;12820;51.580;5.010;2023-05-07T01:01:23;14.43;;;9.05;;
24713;SDS011;12820;51.580;5.010;2023-05-07T01:06:25;12.73;;;9.00;;
24713;SDS011;12820;51.580;5.010;2023-05-07T01:11:30;13.05;;;9.60;;
24713;SDS011;12820;51.580;5.010;2023-05-07T01:16:32;12.25;;;9.90;;
24713;SDS011;12820;51.580;5.010;2023-05-07T01:21:35;12.50;;;9.27;;
24713;SDS011;12820;51.580;5.010;2023-05-07T01:26:41;14.32;;;9.32;;
24713;SDS011;12820;51.580;5.010;2023-05-07T01:31:47;13.35;;;9.48;;
24713;SDS011;12820;51.580;5.010;2023-05-07T01:36:50;13.20;;;9.90;;
24713;SDS011;12820;51.580;5.010;2023-05-07T01:41:56;14.98;;;9.65;;
24713;SDS011;12820;51.580;5.010;2023-05-07T01:46:59;13.60;;;10.23;;
24713;SDS011;12820;51.580;5.010;2023-05-07T01:52:02;13.63;;;9.57;;
24713;SDS011;12820;51.580;5.010;2023-05-07T01:57:05;16.98;;;10.45;;
24713;SDS011;12820;51.580;5.010;2023-05-07T02:02:08;12.68;;;10.50;;
24713;SDS011;12820;51.580;5.010;2023-05-07T02:07:13;15.60;;;10.50;;
24713;SDS011;12820;51.580;5.010;2023-05-07T02:12:15;14.10;;;10.68;;
24713;SDS011;12820;51.580;5.010;2023-05-07T02:17:17;17.85;;;11.63;;
24713;SDS011;12820;51.580;5.010;2023-05-07T02:22:20;18.02;;;11.68;;
24713;SDS011;12820;51.580;5.010;2023-05-07T02:27:22;15.88;;;11.63;;
24713;SDS011;12820;51.580;5.010;2023-05-07T02:32:25;14.20;;;11.65;;
24713;SDS011;12820;51.580;5.010;2023-05-07T02:37:27;15.75;;;11.20;;
24713;SDS011;12820;51.580;5.010;2023-05-07T02:42:30;17.92;;;12.25;;
24713;SDS011;12820;51.580;5.010;2023-05-07T02:47:32;15.23;;;11.98;;
24713;SDS011;12820;51.580;5.010;2023-05-07T02:52:36;16.73;;;12.07;;
24713;SDS011;12820;51.580;5.010;2023-05-07T02:57:39;18.80;;;13.00;;
24713;SDS011;12820;51.580;5.010;2023-05-07T03:02:42;17.67;;;12.90;;
24713;SDS011;12820;51.580;5.010;2023-05-07T03:07:45;19.20;;;14.45;;
24713;SDS011;12820;51.580;5.010;2023-05-07T03:12:48;19.92;;;14.60;;
24713;SDS011;12820;51.580;5.010;2023-05-07T03:17:52;21.27;;;14.70;;
24713;SDS011;12820;51.580;5.010;2023-05-07T03:22:54;19.63;;;14.13;;
24713;SDS011;12820;51.580;5.010;2023-05-07T03:27:56;18.00;;;14.23;;
24713;SDS011;12820;51.580;5.010;2023-05-07T03:33:04;20.95;;;14.35;;
24713;SDS011;12820;51.580;5.010;2023-05-07T03:38:07;20.70;;;14.70;;
24713;SDS011;12820;51.580;5.010;2023-05-07T03:43:11;20.15;;;15.25;;
24713;SDS011;12820;51.580;5.010;2023-05-07T03:48:18;18.77;;;14.93;;
24713;SDS011;12820;51.580;5.010;2023-05-07T03:53:23;17.88;;;14.23;;
24713;SDS011;12820;51.580;5.010;2023-05-07T03:58:26;19.90;;;13.80;;
24713;SDS011;12820;51.580;5.010;2023-05-07T04:03:32;23.80;;;15.27;;
24713;SDS011;12820;51.580;5.010;2023-05-07T04:08:35;19.75;;;14.95;;
24713;SDS011;12820;51.580;5.010;2023-05-07T04:13:39;21.48;;;15.18;;
24713;SDS011;12820;51.580;5.010;2023-05-07T04:18:43;20.20;;;15.45;;
24713;SDS011;12820;51.580;5.010;2023-05-07T04:23:46;22.13;;;16.02;;
24713;SDS011;12820;51.580;5.010;2023-05-07T04:28:49;22.73;;;15.80;;
24713;SDS011;12820;51.580;5.010;2023-05-07T04:33:52;20.52;;;15.52;;
24713;SDS011;12820;51.580;5.010;2023-05-07T04:38:55;20.90;;;15.93;;
24713;SDS011;12820;51.580;5.010;2023-05-07T04:43:58;20.35;;;16.73;;
24713;SDS011;12820;51.580;5.010;2023-05-07T04:49:04;21.08;;;16.00;;
24713;SDS011;12820;51.580;5.010;2023-05-07T04:54:07;27.23;;;17.30;;
24713;SDS011;12820;51.580;5.010;2023-05-07T04:59:09;24.65;;;17.65;;
24713;SDS011;12820;51.580;5.010;2023-05-07T05:04:11;24.63;;;17.60;;
24713;SDS011;12820;51.580;5.010;2023-05-07T05:09:15;25.13;;;18.45;;
24713;SDS011;12820;51.580;5.010;2023-05-07T05:14:17;23.98;;;17.08;;
24713;SDS011;12820;51.580;5.010;2023-05-07T05:19:20;23.95;;;18.60;;
24713;SDS011;12820;51.580;5.010;2023-05-07T05:24:22;27.13;;;20.00;;
24713;SDS011;12820;51.580;5.010;2023-05-07T05:29:25;26.73;;;20.27;;
24713;SDS011;12820;51.580;5.010;2023-05-07T05:34:27;29.73;;;20.50;;
24713;SDS011;12820;51.580;5.010;2023-05-07T05:39:30;27.55;;;19.90;;
24713;SDS011;12820;51.580;5.010;2023-05-07T05:44:33;26.77;;;20.63;;
24713;SDS011;12820;51.580;5.010;2023-05-07T05:49:36;28.02;;;21.27;;
24713;SDS011;12820;51.580;5.010;2023-05-07T05:54:39;30.20;;;21.85;;
24713;SDS011;12820;51.580;5.010;2023-05-07T05:59:42;31.17;;;22.77;;
24713;SDS011;12820;51.580;5.010;2023-05-07T06:04:44;30.40;;;22.77;;
24713;SDS011;12820;51.580;5.010;2023-05-07T06:09:52;27.55;;;22.67;;
24713;SDS011;12820;51.580;5.010;2023-05-07T06:14:55;29.60;;;23.15;;
24713;SDS011;12820;51.580;5.010;2023-05-07T06:19:58;33.35;;;23.98;;
24713;SDS011;12820;51.580;5.010;2023-05-07T06:25:01;32.55;;;22.88;;
24713;SDS011;12820;51.580;5.010;2023-05-07T06:30:03;29.33;;;22.75;;
24713;SDS011;12820;51.580;5.010;2023-05-07T06:35:07;28.55;;;23.13;;
24713;SDS011;12820;51.580;5.010;2023-05-07T06:40:12;30.30;;;22.73;;
24713;SDS011;12820;51.580;5.010;2023-05-07T06:45:16;30.00;;;23.27;;
24713;SDS011;12820;51.580;5.010;2023-05-07T06:50:18;28.38;;;22.20;;
24713;SDS011;12820;51.580;5.010;2023-05-07T06:55:21;30.98;;;23.77;;
24713;SDS011;12820;51.580;5.010;2023-05-07T07:00:25;30.27;;;24.13;;
24713;SDS011;12820;51.580;5.010;2023-05-07T07:05:30;28.60;;;23.58;;
24713;SDS011;12820;51.580;5.010;2023-05-07T07:10:33;31.90;;;23.95;;
24713;SDS011;12820;51.580;5.010;2023-05-07T07:15:36;28.55;;;23.85;;
24713;SDS011;12820;51.580;5.010;2023-05-07T07:20:39;30.40;;;23.83;;
24713;SDS011;12820;51.580;5.010;2023-05-07T07:25:43;27.63;;;21.83;;
24713;SDS011;12820;51.580;5.010;2023-05-07T07:30:46;26.25;;;22.10;;
24713;SDS011;12820;51.580;5.010;2023-05-07T07:35:50;29.85;;;21.75;;
24713;SDS011;12820;51.580;5.010;2023-05-07T07:40:53;23.95;;;19.85;;
24713;SDS011;12820;51.580;5.010;2023-05-07T07:45:57;27.63;;;20.65;;
24713;SDS011;12820;51.580;5.010;2023-05-07T07:51:00;22.90;;;19.60;;
24713;SDS011;12820;51.580;5.010;2023-05-07T07:56:03;29.42;;;20.35;;
24713;SDS011;12820;51.580;5.010;2023-05-07T08:01:08;23.85;;;19.75;;
24713;SDS011;12820;51.580;5.010;2023-05-07T08:06:26;25.50;;;18.90;;
24713;SDS011;12820;51.580;5.010;2023-05-07T08:11:29;26.40;;;19.35;;
24713;SDS011;12820;51.580;5.010;2023-05-07T08:16:31;22.65;;;18.23;;
24713;SDS011;12820;51.580;5.010;2023-05-07T08:21:38;23.25;;;18.45;;
24713;SDS011;12820;51.580;5.010;2023-05-07T08:26:41;21.48;;;17.60;;
24713;SDS011;12820;51.580;5.010;2023-05-07T08:31:45;24.10;;;17.38;;
24713;SDS011;12820;51.580;5.010;2023-05-07T08:36:47;21.33;;;18.05;;
24713;SDS011;12820;51.580;5.010;2023-05-07T08:41:54;23.63;;;19.05;;
24713;SDS011;12820;51.580;5.010;2023-05-07T08:46:58;19.98;;;16.27;;
24713;SDS011;12820;51.580;5.010;2023-05-07T08:52:04;21.25;;;17.45;;
24713;SDS011;12820;51.580;5.010;2023-05-07T08:57:09;22.65;;;17.77;;
24713;SDS011;12820;51.580;5.010;2023-05-07T09:02:22;20.15;;;17.92;;
24713;SDS011;12820;51.580;5.010;2023-05-07T09:07:25;21.48;;;16.63;;
24713;SDS011;12820;51.580;5.010;2023-05-07T09:12:28;19.73;;;16.60;;
24713;SDS011;12820;51.580;5.010;2023-05-07T09:17:31;18.38;;;15.00;;
24713;SDS011;12820;51.580;5.010;2023-05-07T09:22:33;17.77;;;14.20;;
24713;SDS011;12820;51.580;5.010;2023-05-07T09:27:42;17.48;;;14.32;;
24713;SDS011;12820;51.580;5.010;2023-05-07T09:32:44;17.25;;;14.20;;
24713;SDS011;12820;51.580;5.010;2023-05-07T09:37:53;14.07;;;11.40;;
24713;SDS011;12820;51.580;5.010;2023-05-07T09:43:08;17.13;;;12.45;;
24713;SDS011;12820;51.580;5.010;2023-05-07T09:48:13;16.58;;;11.68;;
24713;SDS011;12820;51.580;5.010;2023-05-07T09:53:20;15.18;;;11.07;;
24713;SDS011;12820;51.580;5.010;2023-05-07T09:58:26;17.10;;;12.02;;
24713;SDS011;12820;51.580;5.010;2023-05-07T10:03:30;15.85;;;11.32;;
24713;SDS011;12820;51.580;5.010;2023-05-07T10:08:39;14.77;;;12.05;;
24713;SDS011;12820;51.580;5.010;2023-05-07T10:13:43;13.15;;;10.80;;
24713;SDS011;12820;51.580;5.010;2023-05-07T10:18:46;14.32;;;10.57;;
24713;SDS011;12820;51.580;5.010;2023-05-07T10:23:57;14.05;;;10.93;;
24713;SDS011;12820;51.580;5.010;2023-05-07T10:29:05;14.85;;;11.52;;
24713;SDS011;12820;51.580;5.010;2023-05-07T10:34:14;16.77;;;11.95;;
24713;SDS011;12820;51.580;5.010;2023-05-07T10:39:20;18.88;;;12.90;;
24713;SDS011;12820;51.580;5.010;2023-05-07T10:44:27;18.98;;;13.25;;
24713;SDS011;12820;51.580;5.010;2023-05-07T10:49:33;18.27;;;13.57;;
24713;SDS011;12820;51.580;5.010;2023-05-07T10:54:40;17.20;;;13.30;;
24713;SDS011;12820;51.580;5.010;2023-05-07T10:59:46;18.58;;;12.65;;
24713;SDS011;12820;51.580;5.010;2023-05-07T11:16:25;13.23;;;9.73;;
24713;SDS011;12820;51.580;5.010;2023-05-07T11:21:52;18.42;;;10.73;;
24713;SDS011;12820;51.580;5.010;2023-05-07T11:27:07;15.30;;;10.15;;
24713;SDS011;12820;51.580;5.010;2023-05-07T11:32:12;12.32;;;10.32;;
24713;SDS011;12820;51.580;5.010;2023-05-07T11:37:24;14.98;;;10.25;;
24713;SDS011;12820;51.580;5.010;2023-05-07T11:47:36;15.73;;;10.32;;
24713;SDS011;12820;51.580;5.010;2023-05-07T11:52:40;13.40;;;7.75;;
24713;SDS011;12820;51.580;5.010;2023-05-07T11:57:52;12.93;;;6.63;;
24713;SDS011;12820;51.580;5.010;2023-05-07T12:02:54;13.90;;;7.78;;
24713;SDS011;12820;51.580;5.010;2023-05-07T12:07:57;13.00;;;7.40;;
24713;SDS011;12820;51.580;5.010;2023-05-07T12:12:59;10.98;;;6.88;;
24713;SDS011;12820;51.580;5.010;2023-05-07T12:18:01;10.73;;;6.72;;
24713;SDS011;12820;51.580;5.010;2023-05-07T12:23:03;10.60;;;6.53;;
24713;SDS011;12820;51.580;5.010;2023-05-07T12:28:07;11.23;;;6.72;;
24713;SDS011;12820;51.580;5.010;2023-05-07T12:33:09;11.55;;;5.47;;
24713;SDS011;12820;51.580;5.010;2023-05-07T12:38:13;12.57;;;7.50;;
24713;SDS011;12820;51.580;5.010;2023-05-07T12:43:20;11.95;;;9.02;;
24713;SDS011;12820;51.580;5.010;2023-05-07T12:48:25;13.02;;;8.25;;
24713;SDS011;12820;51.580;5.010;2023-05-07T12:53:29;16.15;;;9.52;;
24713;SDS011;12820;51.580;5.010;2023-05-07T12:58:33;14.77;;;9.27;;
24713;SDS011;12820;51.580;5.010;2023-05-07T13:03:37;13.65;;;8.77;;
24713;SDS011;12820;51.580;5.010;2023-05-07T13:08:40;11.65;;;7.80;;
24713;SDS011;12820;51.580;5.010;2023-05-07T13:13:45;14.70;;;8.32;;
24713;SDS011;12820;51.580;5.010;2023-05-07T13:18:47;12.98;;;7.72;;
24713;SDS011;12820;51.580;5.010;2023-05-07T13:23:49;11.13;;;6.60;;
24713;SDS011;12820;51.580;5.010;2023-05-07T13:28:52;11.48;;;5.70;;
24713;SDS011;12820;51.580;5.010;2023-05-07T13:33:55;11.88;;;5.57;;
24713;SDS011;12820;51.580;5.010;2023-05-07T13:38:58;11.88;;;5.10;;
24713;SDS011;12820;51.580;5.010;2023-05-07T13:44:02;10.13;;;4.93;;
24713;SDS011;12820;51.580;5.010;2023-05-07T13:49:04;8.25;;;4.68;;
24713;SDS011;12820;51.580;5.010;2023-05-07T13:54:06;11.02;;;5.50;;
24713;SDS011;12820;51.580;5.010;2023-05-07T13:59:08;7.95;;;3.83;;
24713;SDS011;12820;51.580;5.010;2023-05-07T14:04:10;9.30;;;3.58;;
24713;SDS011;12820;51.580;5.010;2023-05-07T14:09:12;9.30;;;3.53;;
24713;SDS011;12820;51.580;5.010;2023-05-07T14:14:15;8.48;;;3.25;;
24713;SDS011;12820;51.580;5.010;2023-05-07T14:19:17;8.30;;;2.67;;
24713;SDS011;12820;51.580;5.010;2023-05-07T14:24:19;7.32;;;3.17;;
24713;SDS011;12820;51.580;5.010;2023-05-07T14:29:38;8.32;;;3.13;;
24713;SDS011;12820;51.580;5.010;2023-05-07T14:34:41;10.82;;;3.05;;
24713;SDS011;12820;51.580;5.010;2023-05-07T14:39:44;9.18;;;2.70;;
24713;SDS011;12820;51.580;5.010;2023-05-07T14:44:51;9.63;;;3.40;;
24713;SDS011;12820;51.580;5.010;2023-05-07T14:49:55;7.63;;;2.90;;
24713;SDS011;12820;51.580;5.010;2023-05-07T14:54:59;7.68;;;2.85;;
24713;SDS011;12820;51.580;5.010;2023-05-07T15:00:03;14.20;;;9.70;;
24713;SDS011;12820;51.580;5.010;2023-05-07T15:05:06;14.50;;;9.50;;
24713;SDS011;12820;51.580;5.010;2023-05-07T15:10:09;15.63;;;9.90;;
24713;SDS011;12820;51.580;5.010;2023-05-07T15:15:11;15.70;;;9.13;;
24713;SDS011;12820;51.580;5.010;2023-05-07T15:20:14;21.90;;;12.27;;
24713;SDS011;12820;51.580;5.010;2023-05-07T15:25:16;25.02;;;14.40;;
24713;SDS011;12820;51.580;5.010;2023-05-07T15:30:19;21.15;;;13.20;;
24713;SDS011;12820;51.580;5.010;2023-05-07T15:35:22;20.90;;;12.88;;
24713;SDS011;12820;51.580;5.010;2023-05-07T15:40:25;20.80;;;13.00;;
24713;SDS011;12820;51.580;5.010;2023-05-07T15:45:27;21.02;;;13.75;;
24713;SDS011;12820;51.580;5.010;2023-05-07T15:50:29;21.73;;;15.55;;
24713;SDS011;12820;51.580;5.010;2023-05-07T15:55:31;23.55;;;16.00;;
24713;SDS011;12820;51.580;5.010;2023-05-07T16:00:34;20.95;;;16.02;;
24713;SDS011;12820;51.580;5.010;2023-05-07T16:05:37;19.60;;;13.18;;
24713;SDS011;12820;51.580;5.010;2023-05-07T16:10:39;20.95;;;13.35;;
24713;SDS011;12820;51.580;5.010;2023-05-07T16:15:41;19.88;;;14.43;;
24713;SDS011;12820;51.580;5.010;2023-05-07T16:20:44;19.00;;;13.32;;
24713;SDS011;12820;51.580;5.010;2023-05-07T16:25:46;20.30;;;13.73;;
24713;SDS011;12820;51.580;5.010;2023-05-07T16:30:48;25.65;;;14.52;;
24713;SDS011;12820;51.580;5.010;2023-05-07T16:35:51;21.35;;;13.88;;
24713;SDS011;12820;51.580;5.010;2023-05-07T16:40:54;19.77;;;13.55;;
24713;SDS011;12820;51.580;5.010;2023-05-07T16:45:56;17.73;;;13.07;;
24713;SDS011;12820;51.580;5.010;2023-05-07T16:50:59;17.75;;;13.63;;
24713;SDS011;12820;51.580;5.010;2023-05-07T16:56:04;18.25;;;12.80;;
24713;SDS011;12820;51.580;5.010;2023-05-07T17:01:07;18.02;;;12.82;;
24713;SDS011;12820;51.580;5.010;2023-05-07T17:06:11;20.60;;;12.80;;
24713;SDS011;12820;51.580;5.010;2023-05-07T17:11:15;22.48;;;14.43;;
24713;SDS011;12820;51.580;5.010;2023-05-07T17:16:18;17.33;;;13.85;;
24713;SDS011;12820;51.580;5.010;2023-05-07T17:21:20;19.45;;;13.55;;
24713;SDS011;12820;51.580;5.010;2023-05-07T17:26:22;18.55;;;12.30;;
24713;SDS011;12820;51.580;5.010;2023-05-07T17:31:25;14.15;;;10.82;;
24713;SDS011;12820;51.580;5.010;2023-05-07T17:36:27;15.18;;;10.45;;
24713;SDS011;12820;51.580;5.010;2023-05-07T17:41:29;18.15;;;10.77;;
24713;SDS011;12820;51.580;5.010;2023-05-07T17:46:32;14.52;;;9.88;;
24713;SDS011;12820;51.580;5.010;2023-05-07T17:51:34;14.80;;;9.98;;
24713;SDS011;12820;51.580;5.010;2023-05-07T17:56:54;15.33;;;10.77;;
24713;SDS011;12820;51.580;5.010;2023-05-07T18:01:57;15.93;;;10.90;;
24713;SDS011;12820;51.580;5.010;2023-05-07T18:06:59;15.88;;;10.48;;
24713;SDS011;12820;51.580;5.010;2023-05-07T18:12:01;15.88;;;10.85;;
24713;SDS011;12820;51.580;5.010;2023-05-07T18:17:03;15.98;;;11.65;;
24713;SDS011;12820;51.580;5.010;2023-05-07T18:22:06;17.10;;;12.02;;
24713;SDS011;12820;51.580;5.010;2023-05-07T18:27:09;13.63;;;10.68;;
24713;SDS011;12820;51.580;5.010;2023-05-07T18:32:11;13.60;;;10.30;;
24713;SDS011;12820;51.580;5.010;2023-05-07T18:37:14;15.85;;;11.48;;
24713;SDS011;12820;51.580;5.010;2023-05-07T18:42:16;15.55;;;11.48;;
24713;SDS011;12820;51.580;5.010;2023-05-07T18:47:19;15.73;;;11.18;;
24713;SDS011;12820;51.580;5.010;2023-05-07T18:52:21;15.05;;;10.45;;
24713;SDS011;12820;51.580;5.010;2023-05-07T18:57:23;13.13;;;9.98;;
24713;SDS011;12820;51.580;5.010;2023-05-07T19:02:26;12.82;;;9.65;;
24713;SDS011;12820;51.580;5.010;2023-05-07T19:07:28;11.55;;;9.07;;
24713;SDS011;12820;51.580;5.010;2023-05-07T19:12:31;12.70;;;9.20;;
24713;SDS011;12820;51.580;5.010;2023-05-07T19:17:33;11.38;;;8.68;;
24713;SDS011;12820;51.580;5.010;2023-05-07T19:22:36;12.02;;;8.50;;
24713;SDS011;12820;51.580;5.010;2023-05-07T19:27:39;12.10;;;8.60;;
24713;SDS011;12820;51.580;5.010;2023-05-07T19:32:41;12.82;;;8.52;;
24713;SDS011;12820;51.580;5.010;2023-05-07T19:37:43;11.55;;;8.73;;
24713;SDS011;12820;51.580;5.010;2023-05-07T19:42:45;11.32;;;8.63;;
24713;SDS011;12820;51.580;5.010;2023-05-07T19:47:48;12.63;;;9.25;;
24713;SDS011;12820;51.580;5.010;2023-05-07T19:52:50;10.65;;;8.18;;
24713;SDS011;12820;51.580;5.010;2023-05-07T19:57:52;12.48;;;9.20;;
24713;SDS011;12820;51.580;5.010;2023-05-07T20:02:56;12.13;;;8.55;;
24713;SDS011;12820;51.580;5.010;2023-05-07T20:07:59;11.23;;;8.40;;
24713;SDS011;12820;51.580;5.010;2023-05-07T20:13:04;15.50;;;9.25;;
24713;SDS011;12820;51.580;5.010;2023-05-07T20:18:06;15.90;;;10.88;;
24713;SDS011;12820;51.580;5.010;2023-05-07T20:23:08;11.13;;;7.82;;
24713;SDS011;12820;51.580;5.010;2023-05-07T20:28:10;12.45;;;8.23;;
24713;SDS011;12820;51.580;5.010;2023-05-07T20:33:12;10.15;;;7.82;;
24713;SDS011;12820;51.580;5.010;2023-05-07T20:38:15;9.77;;;7.78;;
24713;SDS011;12820;51.580;5.010;2023-05-07T20:43:17;10.98;;;8.50;;
24713;SDS011;12820;51.580;5.010;2023-05-07T20:48:19;13.75;;;9.98;;
24713;SDS011;12820;51.580;5.010;2023-05-07T20:53:21;13.30;;;10.32;;
24713;SDS011;12820;51.580;5.010;2023-05-07T20:58:24;13.07;;;9.30;;
24713;SDS011;12820;51.580;5.010;2023-05-07T21:03:29;11.20;;;9.32;;
24713;SDS011;12820;51.580;5.010;2023-05-07T21:08:31;12.23;;;8.85;;
24713;SDS011;12820;51.580;5.010;2023-05-07T21:13:33;12.40;;;8.75;;
24713;SDS011;12820;51.580;5.010;2023-05-07T21:18:35;14.38;;;8.77;;
24713;SDS011;12820;51.580;5.010;2023-05-07T21:23:38;11.80;;;9.00;;
24713;SDS011;12820;51.580;5.010;2023-05-07T21:28:40;13.50;;;9.55;;
24713;SDS011;12820;51.580;5.010;2023-05-07T21:33:42;11.10;;;8.55;;
24713;SDS011;12820;51.580;5.010;2023-05-07T21:38:45;14.20;;;9.23;;
24713;SDS011;12820;51.580;5.010;2023-05-07T21:43:47;11.60;;;9.15;;
24713;SDS011;12820;51.580;5.010;2023-05-07T21:48:49;11.93;;;9.18;;
24713;SDS011;12820;51.580;5.010;2023-05-07T21:53:52;11.73;;;9.80;;
24713;SDS011;12820;51.580;5.010;2023-05-07T21:58:56;13.80;;;9.70;;
24713;SDS011;12820;51.580;5.010;2023-05-07T22:03:59;12.70;;;9.43;;
24713;SDS011;12820;51.580;5.010;2023-05-07T22:09:01;12.10;;;9.88;;
24713;SDS011;12820;51.580;5.010;2023-05-07T22:14:04;13.90;;;9.88;;
24713;SDS011;12820;51.580;5.010;2023-05-07T22:19:07;15.65;;;10.32;;
24713;SDS011;12820;51.580;5.010;2023-05-07T22:24:09;13.93;;;9.93;;
24713;SDS011;12820;51.580;5.010;2023-05-07T22:29:11;13.50;;;10.63;;
24713;SDS011;12820;51.580;5.010;2023-05-07T22:34:13;13.98;;;11.88;;
24713;SDS011;12820;51.580;5.010;2023-05-07T22:39:16;17.27;;;13.75;;
24713;SDS011;12820;51.580;5.010;2023-05-07T22:44:18;18.50;;;13.88;;
24713;SDS011;12820;51.580;5.010;2023-05-07T22:49:20;22.05;;;15.13;;
24713;SDS011;12820;51.580;5.010;2023-05-07T22:54:22;17.48;;;14.13;;
24713;SDS011;12820;51.580;5.010;2023-05-07T22:59:26;20.50;;;13.88;;
24713;SDS011;12820;51.580;5.010;2023-05-07T23:04:28;19.83;;;14.98;;
24713;SDS011;12820;51.580;5.010;2023-05-07T23:09:31;17.80;;;14.55;;
24713;SDS011;12820;51.580;5.010;2023-05-07T23:14:33;16.77;;;13.90;;
24713;SDS011;12820;51.580;5.010;2023-05-07T23:19:35;17.05;;;13.63;;
24713;SDS011;12820;51.580;5.010;2023-05-07T23:24:38;16.20;;;13.38;;
24713;SDS011;12820;51.580;5.010;2023-05-07T23:29:41;16.52;;;13.32;;
24713;SDS011;12820;51.580;5.010;2023-05-07T23:34:43;17.70;;;13.93;;
24713;SDS011;12820;51.580;5.010;2023-05-07T23:39:45;18.10;;;14.13;;
24713;SDS011;12820;51.580;5.010;2023-05-07T23:44:47;15.98;;;13.68;;
24713;SDS011;12820;51.580;5.010;2023-05-07T23:49:50;16.77;;;13.57;;
24713;SDS011;12820;51.580;5.010;2023-05-07T23:54:52;14.57;;;12.65;;
24713;SDS011;12820;51.580;5.010;2023-05-07T23:59:55;15.52;;;12.77;;
